sensor_id;sensor_type;location;lat;lon;timestamp;temperature;humidity
65046;DHT22;54657;52.022;5.534;2023-03-01T00:01:47;1.70;59.30
65046;DHT22;54657;52.022;5.534;2023-03-01T00:04:13;1.70;59.40
65046;DHT22;54657;52.022;5.534;2023-03-01T00:06:38;1.60;59.40
65046;DHT22;54657;52.022;5.534;2023-03-01T00:09:04;1.50;59.60
65046;DHT22;54657;52.022;5.534;2023-03-01T00:11:32;1.40;59.70
65046;DHT22;54657;52.022;5.534;2023-03-01T00:13:59;1.40;59.80
65046;DHT22;54657;52.022;5.534;2023-03-01T00:16:29;1.30;59.80
65046;DHT22;54657;52.022;5.534;2023-03-01T00:18:55;1.30;59.70
65046;DHT22;54657;52.022;5.534;2023-03-01T00:21:22;1.30;59.80
65046;DHT22;54657;52.022;5.534;2023-03-01T00:23:48;1.30;60.00
65046;DHT22;54657;52.022;5.534;2023-03-01T00:26:15;1.40;59.90
65046;DHT22;54657;52.022;5.534;2023-03-01T00:28:41;1.30;60.10
65046;DHT22;54657;52.022;5.534;2023-03-01T00:31:16;1.30;60.20
65046;DHT22;54657;52.022;5.534;2023-03-01T00:33:43;1.40;60.00
65046;DHT22;54657;52.022;5.534;2023-03-01T00:36:11;1.50;60.00
65046;DHT22;54657;52.022;5.534;2023-03-01T00:38:42;1.40;59.90
65046;DHT22;54657;52.022;5.534;2023-03-01T00:41:10;1.30;60.10
65046;DHT22;54657;52.022;5.534;2023-03-01T00:43:36;1.40;60.10
65046;DHT22;54657;52.022;5.534;2023-03-01T00:46:04;1.40;59.90
65046;DHT22;54657;52.022;5.534;2023-03-01T00:48:30;1.50;59.80
65046;DHT22;54657;52.022;5.534;2023-03-01T00:50:56;1.40;59.80
65046;DHT22;54657;52.022;5.534;2023-03-01T00:53:21;1.30;59.90
65046;DHT22;54657;52.022;5.534;2023-03-01T00:55:47;1.30;59.80
65046;DHT22;54657;52.022;5.534;2023-03-01T00:58:12;1.20;59.90
65046;DHT22;54657;52.022;5.534;2023-03-01T01:00:38;1.20;60.20
65046;DHT22;54657;52.022;5.534;2023-03-01T01:03:03;1.20;60.20
65046;DHT22;54657;52.022;5.534;2023-03-01T01:05:29;1.30;60.20
65046;DHT22;54657;52.022;5.534;2023-03-01T01:07:54;1.30;60.10
65046;DHT22;54657;52.022;5.534;2023-03-01T01:10:20;1.20;60.00
65046;DHT22;54657;52.022;5.534;2023-03-01T01:12:46;1.10;60.40
65046;DHT22;54657;52.022;5.534;2023-03-01T01:15:12;1.10;60.50
65046;DHT22;54657;52.022;5.534;2023-03-01T01:17:39;1.10;61.00
65046;DHT22;54657;52.022;5.534;2023-03-01T01:20:05;1.20;60.20
65046;DHT22;54657;52.022;5.534;2023-03-01T01:22:31;1.30;60.00
65046;DHT22;54657;52.022;5.534;2023-03-01T01:24:57;1.30;60.00
65046;DHT22;54657;52.022;5.534;2023-03-01T01:27:22;1.20;60.00
65046;DHT22;54657;52.022;5.534;2023-03-01T01:29:48;1.20;60.00
65046;DHT22;54657;52.022;5.534;2023-03-01T01:32:13;1.20;60.10
65046;DHT22;54657;52.022;5.534;2023-03-01T01:34:39;1.20;60.10
65046;DHT22;54657;52.022;5.534;2023-03-01T01:37:05;1.10;60.20
65046;DHT22;54657;52.022;5.534;2023-03-01T01:39:33;1.00;60.30
65046;DHT22;54657;52.022;5.534;2023-03-01T01:42:00;1.00;60.30
65046;DHT22;54657;52.022;5.534;2023-03-01T01:44:28;0.90;60.50
65046;DHT22;54657;52.022;5.534;2023-03-01T01:47:03;0.80;60.80
65046;DHT22;54657;52.022;5.534;2023-03-01T01:49:35;0.70;60.90
65046;DHT22;54657;52.022;5.534;2023-03-01T01:52:17;0.80;61.10
65046;DHT22;54657;52.022;5.534;2023-03-01T01:55:22;0.80;61.10
65046;DHT22;54657;52.022;5.534;2023-03-01T01:57:52;0.80;61.50
65046;DHT22;54657;52.022;5.534;2023-03-01T02:00:21;0.80;60.90
65046;DHT22;54657;52.022;5.534;2023-03-01T02:02:50;0.80;60.80
65046;DHT22;54657;52.022;5.534;2023-03-01T02:05:24;0.90;60.70
65046;DHT22;54657;52.022;5.534;2023-03-01T02:07:51;0.90;60.70
65046;DHT22;54657;52.022;5.534;2023-03-01T02:10:17;0.90;60.70
65046;DHT22;54657;52.022;5.534;2023-03-01T02:12:42;0.90;60.70
65046;DHT22;54657;52.022;5.534;2023-03-01T02:15:09;0.90;60.70
65046;DHT22;54657;52.022;5.534;2023-03-01T02:17:35;0.90;60.60
65046;DHT22;54657;52.022;5.534;2023-03-01T02:23:08;0.90;60.80
65046;DHT22;54657;52.022;5.534;2023-03-01T02:28:25;0.70;60.30
65046;DHT22;54657;52.022;5.534;2023-03-01T02:30:51;0.40;61.10
65046;DHT22;54657;52.022;5.534;2023-03-01T02:33:38;0.50;61.50
65046;DHT22;54657;52.022;5.534;2023-03-01T02:36:08;0.50;61.50
65046;DHT22;54657;52.022;5.534;2023-03-01T02:38:36;0.60;61.20
65046;DHT22;54657;52.022;5.534;2023-03-01T02:41:02;0.60;61.20
65046;DHT22;54657;52.022;5.534;2023-03-01T02:43:31;0.60;61.20
65046;DHT22;54657;52.022;5.534;2023-03-01T02:46:02;0.60;61.20
65046;DHT22;54657;52.022;5.534;2023-03-01T02:48:50;0.60;61.30
65046;DHT22;54657;52.022;5.534;2023-03-01T02:54:17;0.50;61.10
65046;DHT22;54657;52.022;5.534;2023-03-01T02:56:45;0.50;61.30
65046;DHT22;54657;52.022;5.534;2023-03-01T02:59:16;0.50;61.80
65046;DHT22;54657;52.022;5.534;2023-03-01T03:01:43;0.50;61.30
65046;DHT22;54657;52.022;5.534;2023-03-01T03:04:12;0.40;61.30
65046;DHT22;54657;52.022;5.534;2023-03-01T03:06:43;0.50;61.40
65046;DHT22;54657;52.022;5.534;2023-03-01T03:09:09;0.50;61.30
65046;DHT22;54657;52.022;5.534;2023-03-01T03:11:35;0.50;61.30
65046;DHT22;54657;52.022;5.534;2023-03-01T03:14:02;0.50;61.30
65046;DHT22;54657;52.022;5.534;2023-03-01T03:16:28;0.50;61.50
65046;DHT22;54657;52.022;5.534;2023-03-01T03:18:55;0.50;61.50
65046;DHT22;54657;52.022;5.534;2023-03-01T03:21:20;0.40;61.40
65046;DHT22;54657;52.022;5.534;2023-03-01T03:23:46;0.40;61.40
65046;DHT22;54657;52.022;5.534;2023-03-01T03:26:11;0.50;61.40
65046;DHT22;54657;52.022;5.534;2023-03-01T03:28:39;0.60;61.30
65046;DHT22;54657;52.022;5.534;2023-03-01T03:31:06;0.50;61.20
65046;DHT22;54657;52.022;5.534;2023-03-01T03:33:32;0.50;61.20
65046;DHT22;54657;52.022;5.534;2023-03-01T03:35:58;0.40;61.30
65046;DHT22;54657;52.022;5.534;2023-03-01T03:38:24;0.40;61.40
65046;DHT22;54657;52.022;5.534;2023-03-01T03:41:10;0.40;61.60
65046;DHT22;54657;52.022;5.534;2023-03-01T03:43:37;0.30;61.80
65046;DHT22;54657;52.022;5.534;2023-03-01T03:46:04;0.20;61.60
65046;DHT22;54657;52.022;5.534;2023-03-01T03:48:32;0.20;61.80
65046;DHT22;54657;52.022;5.534;2023-03-01T03:50:58;0.10;62.00
65046;DHT22;54657;52.022;5.534;2023-03-01T03:53:25;0.10;62.30
65046;DHT22;54657;52.022;5.534;2023-03-01T03:55:51;0.10;62.20
65046;DHT22;54657;52.022;5.534;2023-03-01T03:58:18;0.00;62.20
65046;DHT22;54657;52.022;5.534;2023-03-01T04:00:46;0.00;62.30
65046;DHT22;54657;52.022;5.534;2023-03-01T04:03:13;0.10;62.20
65046;DHT22;54657;52.022;5.534;2023-03-01T04:05:40;0.20;62.10
65046;DHT22;54657;52.022;5.534;2023-03-01T04:08:06;0.30;61.90
65046;DHT22;54657;52.022;5.534;2023-03-01T04:10:39;0.30;61.80
65046;DHT22;54657;52.022;5.534;2023-03-01T04:13:06;0.30;61.70
65046;DHT22;54657;52.022;5.534;2023-03-01T04:15:32;0.30;61.70
65046;DHT22;54657;52.022;5.534;2023-03-01T04:17:59;0.30;61.70
65046;DHT22;54657;52.022;5.534;2023-03-01T04:20:27;0.30;61.70
65046;DHT22;54657;52.022;5.534;2023-03-01T04:23:06;0.20;62.00
65046;DHT22;54657;52.022;5.534;2023-03-01T04:25:57;0.00;62.10
65046;DHT22;54657;52.022;5.534;2023-03-01T04:28:28;-0.10;62.30
65046;DHT22;54657;52.022;5.534;2023-03-01T04:30:56;-0.20;62.70
65046;DHT22;54657;52.022;5.534;2023-03-01T04:33:24;-0.10;62.50
65046;DHT22;54657;52.022;5.534;2023-03-01T04:35:49;0.10;62.40
65046;DHT22;54657;52.022;5.534;2023-03-01T04:38:16;0.10;62.10
65046;DHT22;54657;52.022;5.534;2023-03-01T04:40:42;0.20;61.80
65046;DHT22;54657;52.022;5.534;2023-03-01T04:43:09;0.20;61.70
65046;DHT22;54657;52.022;5.534;2023-03-01T04:45:35;0.30;61.60
65046;DHT22;54657;52.022;5.534;2023-03-01T04:48:01;0.30;61.50
65046;DHT22;54657;52.022;5.534;2023-03-01T04:50:28;0.40;61.40
65046;DHT22;54657;52.022;5.534;2023-03-01T04:52:54;0.40;61.30
65046;DHT22;54657;52.022;5.534;2023-03-01T04:55:19;0.30;61.20
65046;DHT22;54657;52.022;5.534;2023-03-01T04:57:45;0.20;61.30
65046;DHT22;54657;52.022;5.534;2023-03-01T05:00:13;0.20;61.50
65046;DHT22;54657;52.022;5.534;2023-03-01T05:02:52;0.20;61.50
65046;DHT22;54657;52.022;5.534;2023-03-01T05:05:27;0.20;61.50
65046;DHT22;54657;52.022;5.534;2023-03-01T05:07:55;0.20;61.50
65046;DHT22;54657;52.022;5.534;2023-03-01T05:10:22;0.10;61.70
65046;DHT22;54657;52.022;5.534;2023-03-01T05:12:48;0.00;61.80
65046;DHT22;54657;52.022;5.534;2023-03-01T05:15:14;0.00;61.90
65046;DHT22;54657;52.022;5.534;2023-03-01T05:17:40;0.10;62.00
65046;DHT22;54657;52.022;5.534;2023-03-01T05:20:05;0.10;61.90
65046;DHT22;54657;52.022;5.534;2023-03-01T05:22:34;-0.10;62.10
65046;DHT22;54657;52.022;5.534;2023-03-01T05:25:00;-0.10;62.00
65046;DHT22;54657;52.022;5.534;2023-03-01T05:27:26;-0.30;62.50
65046;DHT22;54657;52.022;5.534;2023-03-01T05:29:52;-0.30;62.70
65046;DHT22;54657;52.022;5.534;2023-03-01T05:32:17;-0.30;62.80
65046;DHT22;54657;52.022;5.534;2023-03-01T05:34:43;-0.20;62.60
65046;DHT22;54657;52.022;5.534;2023-03-01T05:37:11;-0.20;62.40
65046;DHT22;54657;52.022;5.534;2023-03-01T05:39:37;-0.10;62.20
65046;DHT22;54657;52.022;5.534;2023-03-01T05:42:03;0.00;62.10
65046;DHT22;54657;52.022;5.534;2023-03-01T05:44:28;0.10;61.90
65046;DHT22;54657;52.022;5.534;2023-03-01T05:46:54;0.20;61.70
65046;DHT22;54657;52.022;5.534;2023-03-01T05:49:23;0.10;61.50
65046;DHT22;54657;52.022;5.534;2023-03-01T05:51:50;0.20;61.50
65046;DHT22;54657;52.022;5.534;2023-03-01T05:54:18;0.20;61.50
65046;DHT22;54657;52.022;5.534;2023-03-01T05:56:44;0.20;61.60
65046;DHT22;54657;52.022;5.534;2023-03-01T05:59:10;0.20;61.50
65046;DHT22;54657;52.022;5.534;2023-03-01T06:01:36;0.20;61.40
65046;DHT22;54657;52.022;5.534;2023-03-01T06:04:03;0.20;61.30
65046;DHT22;54657;52.022;5.534;2023-03-01T06:06:28;0.20;61.20
65046;DHT22;54657;52.022;5.534;2023-03-01T06:08:54;0.20;61.20
65046;DHT22;54657;52.022;5.534;2023-03-01T06:11:20;0.20;61.90
65046;DHT22;54657;52.022;5.534;2023-03-01T06:13:47;0.20;61.40
65046;DHT22;54657;52.022;5.534;2023-03-01T06:16:13;0.10;61.30
65046;DHT22;54657;52.022;5.534;2023-03-01T06:18:40;0.10;61.40
65046;DHT22;54657;52.022;5.534;2023-03-01T06:21:07;0.00;61.60
65046;DHT22;54657;52.022;5.534;2023-03-01T06:23:33;-0.10;61.80
65046;DHT22;54657;52.022;5.534;2023-03-01T06:25:59;-0.20;62.20
65046;DHT22;54657;52.022;5.534;2023-03-01T06:28:25;-0.30;62.30
65046;DHT22;54657;52.022;5.534;2023-03-01T06:30:51;-0.30;62.30
65046;DHT22;54657;52.022;5.534;2023-03-01T06:33:18;-0.20;62.20
65046;DHT22;54657;52.022;5.534;2023-03-01T06:35:46;-0.10;62.10
65046;DHT22;54657;52.022;5.534;2023-03-01T06:38:12;-0.10;62.00
65046;DHT22;54657;52.022;5.534;2023-03-01T06:40:40;-0.10;61.90
65046;DHT22;54657;52.022;5.534;2023-03-01T06:43:06;-0.10;61.90
65046;DHT22;54657;52.022;5.534;2023-03-01T06:45:33;-0.20;62.00
65046;DHT22;54657;52.022;5.534;2023-03-01T06:48:05;-0.10;62.10
65046;DHT22;54657;52.022;5.534;2023-03-01T06:50:32;-0.10;62.00
65046;DHT22;54657;52.022;5.534;2023-03-01T06:52:57;-0.20;62.20
65046;DHT22;54657;52.022;5.534;2023-03-01T06:55:23;-0.20;62.10
65046;DHT22;54657;52.022;5.534;2023-03-01T06:57:57;-0.30;62.40
65046;DHT22;54657;52.022;5.534;2023-03-01T07:00:24;-0.30;62.50
65046;DHT22;54657;52.022;5.534;2023-03-01T07:02:50;-0.30;62.70
65046;DHT22;54657;52.022;5.534;2023-03-01T07:05:16;-0.30;62.60
65046;DHT22;54657;52.022;5.534;2023-03-01T07:07:41;-0.20;62.60
65046;DHT22;54657;52.022;5.534;2023-03-01T07:10:07;-0.20;62.50
65046;DHT22;54657;52.022;5.534;2023-03-01T07:12:33;-0.10;62.30
65046;DHT22;54657;52.022;5.534;2023-03-01T07:14:59;0.00;62.20
65046;DHT22;54657;52.022;5.534;2023-03-01T07:17:24;0.00;62.30
65046;DHT22;54657;52.022;5.534;2023-03-01T07:19:50;0.10;62.40
65046;DHT22;54657;52.022;5.534;2023-03-01T07:22:15;0.10;62.40
65046;DHT22;54657;52.022;5.534;2023-03-01T07:24:42;0.20;62.30
65046;DHT22;54657;52.022;5.534;2023-03-01T07:27:08;0.20;62.30
65046;DHT22;54657;52.022;5.534;2023-03-01T07:29:33;0.30;62.30
65046;DHT22;54657;52.022;5.534;2023-03-01T07:32:02;0.40;62.30
65046;DHT22;54657;52.022;5.534;2023-03-01T07:34:27;0.50;62.30
65046;DHT22;54657;52.022;5.534;2023-03-01T07:36:53;0.60;62.20
65046;DHT22;54657;52.022;5.534;2023-03-01T07:39:24;0.60;62.30
65046;DHT22;54657;52.022;5.534;2023-03-01T07:41:50;0.70;62.30
65046;DHT22;54657;52.022;5.534;2023-03-01T07:44:16;0.80;62.20
65046;DHT22;54657;52.022;5.534;2023-03-01T07:46:42;0.90;62.10
65046;DHT22;54657;52.022;5.534;2023-03-01T07:49:11;0.90;62.00
65046;DHT22;54657;52.022;5.534;2023-03-01T07:51:37;1.10;62.00
65046;DHT22;54657;52.022;5.534;2023-03-01T07:54:11;1.20;62.00
65046;DHT22;54657;52.022;5.534;2023-03-01T07:56:37;1.20;62.00
65046;DHT22;54657;52.022;5.534;2023-03-01T07:59:02;1.20;62.10
65046;DHT22;54657;52.022;5.534;2023-03-01T08:01:28;1.30;62.20
65046;DHT22;54657;52.022;5.534;2023-03-01T08:03:58;1.30;62.00
65046;DHT22;54657;52.022;5.534;2023-03-01T08:06:37;1.20;62.50
65046;DHT22;54657;52.022;5.534;2023-03-01T08:09:05;1.20;62.70
65046;DHT22;54657;52.022;5.534;2023-03-01T08:11:30;1.40;62.70
65046;DHT22;54657;52.022;5.534;2023-03-01T08:13:59;1.60;62.50
65046;DHT22;54657;52.022;5.534;2023-03-01T08:16:24;1.70;62.30
65046;DHT22;54657;52.022;5.534;2023-03-01T08:18:50;1.80;62.20
65046;DHT22;54657;52.022;5.534;2023-03-01T08:21:17;2.00;62.10
65046;DHT22;54657;52.022;5.534;2023-03-01T08:23:43;2.10;62.00
65046;DHT22;54657;52.022;5.534;2023-03-01T08:26:14;2.30;61.80
65046;DHT22;54657;52.022;5.534;2023-03-01T08:28:40;2.40;61.60
65046;DHT22;54657;52.022;5.534;2023-03-01T08:31:27;2.50;61.50
65046;DHT22;54657;52.022;5.534;2023-03-01T08:33:57;2.70;61.60
65046;DHT22;54657;52.022;5.534;2023-03-01T08:36:57;2.80;61.30
65046;DHT22;54657;52.022;5.534;2023-03-01T08:39:19;2.90;61.10
65046;DHT22;54657;52.022;5.534;2023-03-01T08:41:45;3.20;61.10
65046;DHT22;54657;52.022;5.534;2023-03-01T08:44:15;3.30;60.80
65046;DHT22;54657;52.022;5.534;2023-03-01T08:46:42;3.50;60.60
65046;DHT22;54657;52.022;5.534;2023-03-01T08:49:13;3.50;60.50
65046;DHT22;54657;52.022;5.534;2023-03-01T08:51:39;3.70;60.50
65046;DHT22;54657;52.022;5.534;2023-03-01T08:54:07;3.80;60.30
65046;DHT22;54657;52.022;5.534;2023-03-01T08:56:35;3.90;60.00
65046;DHT22;54657;52.022;5.534;2023-03-01T08:59:00;3.90;60.30
65046;DHT22;54657;52.022;5.534;2023-03-01T09:01:26;4.10;60.10
65046;DHT22;54657;52.022;5.534;2023-03-01T09:03:51;4.20;59.80
65046;DHT22;54657;52.022;5.534;2023-03-01T09:06:17;4.30;60.00
65046;DHT22;54657;52.022;5.534;2023-03-01T09:08:46;4.30;59.80
65046;DHT22;54657;52.022;5.534;2023-03-01T09:11:15;4.30;59.80
65046;DHT22;54657;52.022;5.534;2023-03-01T09:13:42;4.30;59.70
65046;DHT22;54657;52.022;5.534;2023-03-01T09:16:09;4.40;59.60
65046;DHT22;54657;52.022;5.534;2023-03-01T09:18:36;4.50;60.00
65046;DHT22;54657;52.022;5.534;2023-03-01T09:21:07;4.50;59.40
65046;DHT22;54657;52.022;5.534;2023-03-01T09:23:34;4.60;59.60
65046;DHT22;54657;52.022;5.534;2023-03-01T09:26:02;4.80;59.20
65046;DHT22;54657;52.022;5.534;2023-03-01T09:28:28;4.90;58.80
65046;DHT22;54657;52.022;5.534;2023-03-01T09:30:53;4.90;59.00
65046;DHT22;54657;52.022;5.534;2023-03-01T09:33:19;4.90;58.60
65046;DHT22;54657;52.022;5.534;2023-03-01T09:35:44;5.00;58.30
65046;DHT22;54657;52.022;5.534;2023-03-01T09:38:13;5.00;57.90
65046;DHT22;54657;52.022;5.534;2023-03-01T09:40:43;5.10;57.90
65046;DHT22;54657;52.022;5.534;2023-03-01T09:43:32;5.20;57.50
65046;DHT22;54657;52.022;5.534;2023-03-01T09:46:04;5.20;56.60
65046;DHT22;54657;52.022;5.534;2023-03-01T09:48:37;5.30;58.00
65046;DHT22;54657;52.022;5.534;2023-03-01T09:51:08;5.30;57.10
65046;DHT22;54657;52.022;5.534;2023-03-01T09:53:34;5.30;57.10
65046;DHT22;54657;52.022;5.534;2023-03-01T09:56:19;5.40;57.10
65046;DHT22;54657;52.022;5.534;2023-03-01T09:58:47;5.50;57.10
65046;DHT22;54657;52.022;5.534;2023-03-01T10:10:08;5.60;57.20
65046;DHT22;54657;52.022;5.534;2023-03-01T10:12:40;5.60;56.70
65046;DHT22;54657;52.022;5.534;2023-03-01T10:17:55;5.70;55.70
65046;DHT22;54657;52.022;5.534;2023-03-01T10:20:48;5.80;55.10
65046;DHT22;54657;52.022;5.534;2023-03-01T10:23:19;5.80;54.80
65046;DHT22;54657;52.022;5.534;2023-03-01T10:28:58;5.70;53.70
65046;DHT22;54657;52.022;5.534;2023-03-01T10:31:39;5.80;54.80
65046;DHT22;54657;52.022;5.534;2023-03-01T10:34:14;5.90;55.60
65046;DHT22;54657;52.022;5.534;2023-03-01T10:36:42;6.00;55.60
65046;DHT22;54657;52.022;5.534;2023-03-01T10:39:17;6.10;54.70
65046;DHT22;54657;52.022;5.534;2023-03-01T10:41:59;6.10;54.10
65046;DHT22;54657;52.022;5.534;2023-03-01T10:44:47;6.10;52.30
65046;DHT22;54657;52.022;5.534;2023-03-01T10:47:25;6.20;52.50
65046;DHT22;54657;52.022;5.534;2023-03-01T10:50:03;6.20;53.90
65046;DHT22;54657;52.022;5.534;2023-03-01T10:52:36;6.30;53.60
65046;DHT22;54657;52.022;5.534;2023-03-01T10:55:30;6.20;53.30
65046;DHT22;54657;52.022;5.534;2023-03-01T10:58:20;6.20;52.90
65046;DHT22;54657;52.022;5.534;2023-03-01T11:03:27;6.30;53.10
65046;DHT22;54657;52.022;5.534;2023-03-01T11:08:45;6.40;52.30
65046;DHT22;54657;52.022;5.534;2023-03-01T11:11:33;6.50;53.30
65046;DHT22;54657;52.022;5.534;2023-03-01T11:14:00;6.50;53.00
65046;DHT22;54657;52.022;5.534;2023-03-01T11:16:37;6.50;53.00
65046;DHT22;54657;52.022;5.534;2023-03-01T11:21:39;6.70;52.60
65046;DHT22;54657;52.022;5.534;2023-03-01T11:24:10;6.80;52.40
65046;DHT22;54657;52.022;5.534;2023-03-01T11:26:40;6.90;52.60
65046;DHT22;54657;52.022;5.534;2023-03-01T11:29:16;7.00;53.00
65046;DHT22;54657;52.022;5.534;2023-03-01T11:31:43;7.00;53.30
65046;DHT22;54657;52.022;5.534;2023-03-01T11:34:22;7.10;52.80
65046;DHT22;54657;52.022;5.534;2023-03-01T11:36:54;7.10;52.00
65046;DHT22;54657;52.022;5.534;2023-03-01T11:39:27;7.10;52.60
65046;DHT22;54657;52.022;5.534;2023-03-01T11:42:20;7.10;50.70
65046;DHT22;54657;52.022;5.534;2023-03-01T11:44:49;7.10;51.70
65046;DHT22;54657;52.022;5.534;2023-03-01T11:55:20;7.10;51.90
65046;DHT22;54657;52.022;5.534;2023-03-01T12:03:54;7.10;51.60
65046;DHT22;54657;52.022;5.534;2023-03-01T12:06:55;7.20;52.40
65046;DHT22;54657;52.022;5.534;2023-03-01T12:09:31;7.20;51.90
65046;DHT22;54657;52.022;5.534;2023-03-01T12:17:53;7.40;50.30
65046;DHT22;54657;52.022;5.534;2023-03-01T12:34:15;7.60;50.50
65046;DHT22;54657;52.022;5.534;2023-03-01T12:43:04;7.50;49.80
65046;DHT22;54657;52.022;5.534;2023-03-01T12:45:50;7.60;48.20
65046;DHT22;54657;52.022;5.534;2023-03-01T12:48:24;7.70;51.10
65046;DHT22;54657;52.022;5.534;2023-03-01T12:50:53;7.70;50.70
65046;DHT22;54657;52.022;5.534;2023-03-01T12:56:01;7.70;50.70
65046;DHT22;54657;52.022;5.534;2023-03-01T12:58:28;7.70;50.20
65046;DHT22;54657;52.022;5.534;2023-03-01T13:06:42;7.90;50.80
65046;DHT22;54657;52.022;5.534;2023-03-01T13:09:14;7.90;50.80
65046;DHT22;54657;52.022;5.534;2023-03-01T13:11:45;8.00;49.80
65046;DHT22;54657;52.022;5.534;2023-03-01T13:16:52;8.00;50.00
65046;DHT22;54657;52.022;5.534;2023-03-01T13:21:47;8.00;50.10
65046;DHT22;54657;52.022;5.534;2023-03-01T13:24:38;8.00;49.70
65046;DHT22;54657;52.022;5.534;2023-03-01T13:29:53;8.00;49.10
65046;DHT22;54657;52.022;5.534;2023-03-01T13:32:37;8.10;49.60
65046;DHT22;54657;52.022;5.534;2023-03-01T13:37:44;8.00;49.60
65046;DHT22;54657;52.022;5.534;2023-03-01T13:42:45;8.00;48.30
65046;DHT22;54657;52.022;5.534;2023-03-01T13:45:24;8.00;49.50
65046;DHT22;54657;52.022;5.534;2023-03-01T13:47:57;8.00;46.70
65046;DHT22;54657;52.022;5.534;2023-03-01T13:50:29;8.00;48.70
65046;DHT22;54657;52.022;5.534;2023-03-01T13:53:02;8.10;48.70
65046;DHT22;54657;52.022;5.534;2023-03-01T13:55:46;8.20;49.00
65046;DHT22;54657;52.022;5.534;2023-03-01T13:58:25;8.10;48.60
65046;DHT22;54657;52.022;5.534;2023-03-01T14:00:58;8.10;46.90
65046;DHT22;54657;52.022;5.534;2023-03-01T14:03:24;8.20;47.50
65046;DHT22;54657;52.022;5.534;2023-03-01T14:06:07;8.10;47.20
65046;DHT22;54657;52.022;5.534;2023-03-01T14:08:37;8.10;48.30
65046;DHT22;54657;52.022;5.534;2023-03-01T14:17:49;8.20;47.70
65046;DHT22;54657;52.022;5.534;2023-03-01T14:21:14;8.20;46.70
65046;DHT22;54657;52.022;5.534;2023-03-01T14:24:33;8.20;48.80
65046;DHT22;54657;52.022;5.534;2023-03-01T14:27:02;8.20;45.60
65046;DHT22;54657;52.022;5.534;2023-03-01T14:29:36;8.20;48.80
65046;DHT22;54657;52.022;5.534;2023-03-01T14:34:57;8.30;47.40
65046;DHT22;54657;52.022;5.534;2023-03-01T14:37:34;8.30;48.40
65046;DHT22;54657;52.022;5.534;2023-03-01T14:43:37;8.20;47.60
65046;DHT22;54657;52.022;5.534;2023-03-01T14:53:06;8.30;46.50
65046;DHT22;54657;52.022;5.534;2023-03-01T14:55:42;8.30;46.30
65046;DHT22;54657;52.022;5.534;2023-03-01T14:58:14;8.30;47.40
65046;DHT22;54657;52.022;5.534;2023-03-01T15:04:10;8.30;46.70
65046;DHT22;54657;52.022;5.534;2023-03-01T15:07:34;8.40;45.30
65046;DHT22;54657;52.022;5.534;2023-03-01T15:10:00;8.30;45.30
65046;DHT22;54657;52.022;5.534;2023-03-01T15:12:36;8.30;48.10
65046;DHT22;54657;52.022;5.534;2023-03-01T15:17:59;8.40;47.20
65046;DHT22;54657;52.022;5.534;2023-03-01T15:20:36;8.30;47.10
65046;DHT22;54657;52.022;5.534;2023-03-01T15:23:05;8.30;46.40
65046;DHT22;54657;52.022;5.534;2023-03-01T15:25:47;8.30;47.70
65046;DHT22;54657;52.022;5.534;2023-03-01T15:28:41;8.30;47.30
65046;DHT22;54657;52.022;5.534;2023-03-01T15:31:22;8.30;47.70
65046;DHT22;54657;52.022;5.534;2023-03-01T15:33:51;8.30;45.00
65046;DHT22;54657;52.022;5.534;2023-03-01T15:36:41;8.30;47.80
65046;DHT22;54657;52.022;5.534;2023-03-01T15:39:33;8.30;47.30
65046;DHT22;54657;52.022;5.534;2023-03-01T15:42:08;8.30;45.10
65046;DHT22;54657;52.022;5.534;2023-03-01T15:44:41;8.30;46.90
65046;DHT22;54657;52.022;5.534;2023-03-01T15:47:24;8.30;48.30
65046;DHT22;54657;52.022;5.534;2023-03-01T15:49:51;8.30;46.10
65046;DHT22;54657;52.022;5.534;2023-03-01T15:52:33;8.20;42.60
65046;DHT22;54657;52.022;5.534;2023-03-01T15:55:14;8.20;46.70
65046;DHT22;54657;52.022;5.534;2023-03-01T15:57:43;8.20;47.80
65046;DHT22;54657;52.022;5.534;2023-03-01T16:00:21;8.20;47.30
65046;DHT22;54657;52.022;5.534;2023-03-01T16:02:49;8.20;46.10
65046;DHT22;54657;52.022;5.534;2023-03-01T16:11:19;8.30;46.70
65046;DHT22;54657;52.022;5.534;2023-03-01T16:13:47;8.20;47.80
65046;DHT22;54657;52.022;5.534;2023-03-01T16:16:14;8.20;47.20
65046;DHT22;54657;52.022;5.534;2023-03-01T16:18:42;8.20;48.50
65046;DHT22;54657;52.022;5.534;2023-03-01T16:21:29;8.20;47.90
65046;DHT22;54657;52.022;5.534;2023-03-01T16:23:55;8.10;47.90
65046;DHT22;54657;52.022;5.534;2023-03-01T16:26:21;8.10;48.70
65046;DHT22;54657;52.022;5.534;2023-03-01T16:28:47;8.10;48.10
65046;DHT22;54657;52.022;5.534;2023-03-01T16:31:17;8.20;48.50
65046;DHT22;54657;52.022;5.534;2023-03-01T16:33:43;8.10;48.10
65046;DHT22;54657;52.022;5.534;2023-03-01T16:36:15;8.10;48.40
65046;DHT22;54657;52.022;5.534;2023-03-01T16:38:41;8.10;48.90
65046;DHT22;54657;52.022;5.534;2023-03-01T16:41:12;8.10;49.00
65046;DHT22;54657;52.022;5.534;2023-03-01T16:43:38;8.10;49.50
65046;DHT22;54657;52.022;5.534;2023-03-01T16:46:26;8.10;49.70
65046;DHT22;54657;52.022;5.534;2023-03-01T16:48:53;8.00;49.40
65046;DHT22;54657;52.022;5.534;2023-03-01T16:51:19;8.00;50.20
65046;DHT22;54657;52.022;5.534;2023-03-01T16:53:45;8.00;50.50
65046;DHT22;54657;52.022;5.534;2023-03-01T16:56:12;7.90;50.10
65046;DHT22;54657;52.022;5.534;2023-03-01T16:58:39;7.90;50.30
65046;DHT22;54657;52.022;5.534;2023-03-01T17:01:08;7.80;50.40
65046;DHT22;54657;52.022;5.534;2023-03-01T17:03:34;7.90;50.40
65046;DHT22;54657;52.022;5.534;2023-03-01T17:06:09;7.80;50.40
65046;DHT22;54657;52.022;5.534;2023-03-01T17:08:35;7.70;50.30
65046;DHT22;54657;52.022;5.534;2023-03-01T17:11:05;7.70;50.50
65046;DHT22;54657;52.022;5.534;2023-03-01T17:13:32;7.60;50.40
65046;DHT22;54657;52.022;5.534;2023-03-01T17:15:59;7.60;50.80
65046;DHT22;54657;52.022;5.534;2023-03-01T17:18:25;7.50;50.70
65046;DHT22;54657;52.022;5.534;2023-03-01T17:20:50;7.50;50.80
65046;DHT22;54657;52.022;5.534;2023-03-01T17:23:16;7.50;50.80
65046;DHT22;54657;52.022;5.534;2023-03-01T17:25:44;7.40;50.90
65046;DHT22;54657;52.022;5.534;2023-03-01T17:28:11;7.30;50.60
65046;DHT22;54657;52.022;5.534;2023-03-01T17:30:37;7.30;51.00
65046;DHT22;54657;52.022;5.534;2023-03-01T17:33:06;7.30;50.90
65046;DHT22;54657;52.022;5.534;2023-03-01T17:35:31;7.30;51.00
65046;DHT22;54657;52.022;5.534;2023-03-01T17:38:04;7.20;51.30
65046;DHT22;54657;52.022;5.534;2023-03-01T17:40:30;7.20;51.30
65046;DHT22;54657;52.022;5.534;2023-03-01T17:42:56;7.20;51.50
65046;DHT22;54657;52.022;5.534;2023-03-01T17:45:22;7.20;51.30
65046;DHT22;54657;52.022;5.534;2023-03-01T17:47:48;7.10;51.30
65046;DHT22;54657;52.022;5.534;2023-03-01T17:50:13;7.10;51.50
65046;DHT22;54657;52.022;5.534;2023-03-01T17:52:39;7.00;51.60
65046;DHT22;54657;52.022;5.534;2023-03-01T17:55:06;7.00;51.60
65046;DHT22;54657;52.022;5.534;2023-03-01T17:57:32;6.90;51.60
65046;DHT22;54657;52.022;5.534;2023-03-01T17:59:58;6.90;52.40
65046;DHT22;54657;52.022;5.534;2023-03-01T18:02:24;6.80;51.80
65046;DHT22;54657;52.022;5.534;2023-03-01T18:04:51;6.80;51.80
65046;DHT22;54657;52.022;5.534;2023-03-01T18:07:18;6.80;51.70
65046;DHT22;54657;52.022;5.534;2023-03-01T18:09:43;6.80;51.90